createdAt,value
2019-04-06T00:01:03.379Z,73.93
2019-04-06T00:03:33.718Z,74.42
2019-04-06T00:06:03.211Z,74.19
2019-04-06T00:08:32.543Z,74.75
2019-04-06T00:11:01.934Z,74.71
2019-04-06T00:13:31.276Z,75.20
2019-04-06T00:16:04.817Z,74.83
2019-04-06T00:18:34.198Z,75.24
2019-04-06T00:21:03.539Z,75.11
2019-04-06T00:23:32.808Z,75.36
2019-04-06T00:26:02.144Z,75.34
2019-04-06T00:28:31.412Z,75.93
2019-04-06T00:31:12.488Z,75.68
2019-04-06T00:33:41.788Z,74.78
2019-04-06T00:36:11.128Z,74.97
2019-04-06T00:38:40.495Z,74.89
2019-04-06T00:41:11.296Z,74.63
2019-04-06T00:43:40.627Z,74.99
2019-04-06T00:46:09.933Z,75.35
2019-04-06T00:48:39.264Z,74.75
2019-04-06T00:51:08.619Z,74.01
2019-04-06T00:53:37.920Z,73.90
2019-04-06T00:56:07.350Z,72.99
2019-04-06T00:58:36.704Z,72.68
2019-04-06T01:01:06.341Z,72.18
2019-04-06T01:03:35.631Z,72.73
2019-04-06T01:06:04.942Z,73.05
2019-04-06T01:08:34.285Z,73.33
2019-04-06T01:11:03.601Z,73.88
2019-04-06T01:13:32.947Z,74.00
2019-04-06T01:16:02.276Z,73.35
2019-04-06T01:18:31.644Z,73.43
2019-04-06T01:21:00.955Z,73.49
2019-04-06T01:23:30.250Z,73.61
2019-04-06T01:26:07.059Z,73.30
2019-04-06T01:28:30.541Z,73.69
2019-04-06T01:31:01.730Z,73.93
2019-04-06T01:33:31.087Z,73.92
2019-04-06T01:36:00.447Z,74.09
2019-04-06T01:38:41.029Z,74.07
2019-04-06T01:41:10.308Z,73.20
2019-04-06T01:43:39.679Z,73.38
2019-04-06T01:46:08.983Z,72.38
2019-04-06T01:48:38.304Z,72.50
2019-04-06T01:51:07.587Z,72.37
2019-04-06T01:53:36.883Z,72.09
2019-04-06T01:56:06.203Z,72.91
2019-04-06T01:58:35.507Z,73.24
2019-04-06T02:01:13.679Z,73.60
2019-04-06T02:03:43.044Z,74.20
2019-04-06T02:06:12.418Z,73.68
2019-04-06T02:08:41.697Z,73.44
2019-04-06T02:11:11.009Z,73.31
2019-04-06T02:13:40.359Z,73.86
2019-04-06T02:16:09.751Z,74.07
2019-04-06T02:18:39.068Z,74.19
2019-04-06T02:21:08.331Z,74.32
2019-04-06T02:23:37.691Z,74.13
2019-04-06T02:26:07.029Z,73.94
2019-04-06T02:28:36.359Z,73.62
2019-04-06T02:31:18.068Z,73.55
2019-04-06T02:34:04.037Z,73.93
2019-04-06T02:36:58.376Z,74.25
2019-04-06T02:39:57.224Z,74.42
2019-04-06T02:42:33.964Z,74.40
2019-04-06T02:45:03.367Z,74.56
2019-04-06T02:47:32.775Z,75.11
2019-04-06T02:50:02.110Z,74.88
2019-04-06T02:52:31.483Z,75.36
2019-04-06T02:55:01.823Z,75.45
2019-04-06T02:57:31.096Z,75.59
2019-04-06T03:00:00.577Z,75.25
2019-04-06T03:02:29.977Z,75.21
2019-04-06T03:04:59.359Z,75.92
2019-04-06T03:07:28.961Z,76.00
2019-04-06T03:09:58.480Z,75.89
2019-04-06T03:12:28.208Z,75.47
2019-04-06T03:14:57.658Z,75.58
2019-04-06T03:17:28.087Z,76.42
2019-04-06T03:19:59.137Z,76.44
2019-04-06T03:22:28.613Z,75.98
2019-04-06T03:24:57.932Z,76.10
2019-04-06T03:27:27.259Z,76.37
2019-04-06T03:29:58.889Z,76.82
2019-04-06T03:32:27.952Z,76.18
2019-04-06T03:34:57.378Z,76.68
2019-04-06T03:37:29.709Z,76.11
2019-04-06T03:40:00.501Z,76.96
2019-04-06T03:42:29.771Z,77.05
2019-04-06T03:44:59.126Z,77.11
2019-04-06T03:47:29.576Z,77.59
2019-04-06T03:49:58.956Z,77.32
2019-04-06T03:52:28.499Z,76.85
2019-04-06T03:54:59.604Z,76.66
2019-04-06T03:57:28.903Z,77.12
2019-04-06T03:59:58.226Z,77.89
2019-04-06T04:02:27.536Z,78.07
2019-04-06T04:04:56.896Z,77.43
2019-04-06T04:07:26.161Z,77.02
2019-04-06T04:09:55.583Z,77.26
2019-04-06T04:12:24.860Z,76.95
2019-04-06T04:14:54.178Z,76.66
2019-04-06T04:17:23.640Z,76.69
2019-04-06T04:19:53.295Z,76.64
2019-04-06T04:22:24.081Z,76.48
2019-04-06T04:24:53.379Z,76.32
2019-04-06T04:27:29.341Z,76.60
2019-04-06T04:29:53.825Z,76.23
2019-04-06T04:32:23.129Z,76.33
2019-04-06T04:34:52.423Z,76.51
2019-04-06T04:37:21.749Z,76.56
2019-04-06T04:39:52.905Z,76.48
2019-04-06T04:42:22.400Z,76.17
2019-04-06T04:44:51.744Z,76.15
2019-04-06T04:47:21.038Z,76.85
2019-04-06T04:49:50.375Z,77.10
2019-04-06T04:52:19.677Z,77.00
2019-04-06T04:54:49.005Z,77.40
2019-04-06T04:57:18.296Z,77.67
2019-04-06T04:59:47.619Z,76.95
2019-04-06T05:02:17.066Z,77.21
2019-04-06T05:04:46.407Z,77.20
2019-04-06T05:07:15.678Z,77.74
2019-04-06T05:09:44.988Z,77.54
2019-04-06T05:12:14.287Z,76.99
2019-04-06T05:15:03.776Z,76.93
2019-04-06T05:17:33.083Z,76.92
2019-04-06T05:20:03.753Z,77.01
2019-04-06T05:22:33.053Z,76.65
2019-04-06T05:25:02.501Z,76.90
2019-04-06T05:27:31.865Z,77.04
2019-04-06T05:30:01.270Z,76.41
2019-04-06T05:32:30.629Z,76.06
2019-04-06T05:34:59.922Z,75.88
2019-04-06T05:37:29.289Z,76.11
2019-04-06T05:39:58.640Z,76.25
2019-04-06T05:42:27.993Z,76.25
2019-04-06T05:44:57.298Z,75.29
2019-04-06T05:47:26.663Z,75.67
2019-04-06T05:49:55.983Z,75.26
2019-04-06T05:52:25.284Z,74.62
2019-04-06T05:54:54.612Z,74.71
2019-04-06T05:57:23.880Z,73.98
2019-04-06T05:59:53.158Z,73.33
2019-04-06T06:02:22.543Z,73.64
2019-04-06T06:04:51.825Z,72.67
2019-04-06T06:07:21.466Z,73.64
2019-04-06T06:09:50.794Z,73.03
2019-04-06T06:12:20.852Z,73.13
2019-04-06T06:14:50.119Z,73.37
2019-04-06T06:17:19.450Z,72.43
2019-04-06T06:19:48.759Z,72.42
2019-04-06T06:22:18.182Z,71.61
2019-04-06T06:24:47.510Z,71.77
2019-04-06T06:27:16.781Z,72.27
2019-04-06T06:29:46.108Z,72.48
2019-04-06T06:32:15.379Z,72.27
2019-04-06T06:34:44.687Z,71.94
2019-04-06T06:37:14.001Z,71.82
2019-04-06T06:39:43.326Z,72.56
2019-04-06T06:42:12.678Z,72.52
2019-04-06T06:44:43.184Z,72.06
2019-04-06T06:47:12.500Z,70.83
2019-04-06T06:49:41.832Z,71.20
2019-04-06T06:52:11.187Z,71.63
2019-04-06T06:54:40.451Z,71.55
2019-04-06T06:57:09.997Z,71.81
2019-04-06T06:59:39.253Z,71.92
2019-04-06T07:02:08.571Z,71.11
2019-04-06T07:04:37.870Z,70.33
2019-04-06T07:07:07.243Z,70.63
2019-04-06T07:09:36.524Z,70.14
2019-04-06T07:12:06.062Z,69.55
2019-04-06T07:14:35.330Z,69.43
2019-04-06T07:17:04.628Z,69.33
2019-04-06T07:19:35.378Z,70.04
2019-04-06T07:22:04.667Z,69.42
2019-04-06T07:24:33.961Z,68.99
2019-04-06T07:27:03.234Z,68.96
2019-04-06T07:29:32.703Z,68.76
2019-04-06T07:32:03.790Z,66.70
2019-04-06T07:34:33.102Z,60.05
2019-04-06T07:37:02.411Z,56.06
2019-04-06T07:39:31.720Z,48.70
2019-04-06T07:42:01.039Z,43.37
2019-04-06T07:44:30.333Z,40.74
2019-04-06T07:46:59.641Z,39.18
2019-04-06T07:49:29.165Z,43.22
2019-04-06T07:51:59.624Z,40.68
2019-04-06T07:54:28.915Z,39.20
2019-04-06T07:56:58.212Z,36.06
2019-04-06T07:59:27.604Z,37.35
2019-04-06T08:01:57.017Z,39.73
2019-04-06T08:04:26.310Z,40.93
2019-04-06T08:06:55.803Z,37.44
2019-04-06T08:09:25.385Z,35.27
2019-04-06T08:11:56.193Z,37.52
2019-04-06T08:14:25.511Z,36.94
2019-04-06T08:16:54.825Z,37.12
2019-04-06T08:19:24.212Z,34.15
2019-04-06T08:21:53.545Z,34.20
2019-04-06T08:24:22.846Z,33.93
2019-04-06T08:26:52.319Z,31.38
2019-04-06T08:29:21.620Z,30.54
2019-04-06T08:31:52.732Z,31.47
2019-04-06T08:34:22.030Z,33.22
2019-04-06T08:36:51.331Z,33.68
2019-04-06T08:39:20.660Z,31.43
2019-04-06T08:41:50.007Z,30.30
2019-04-06T08:44:19.331Z,34.78
2019-04-06T08:46:49.718Z,36.13
2019-04-06T08:49:19.013Z,33.53
2019-04-06T08:51:48.300Z,35.38
2019-04-06T08:54:19.089Z,37.73
2019-04-06T08:56:48.507Z,34.63
2019-04-06T08:59:20.359Z,32.53
2019-04-06T09:01:50.029Z,33.29
2019-04-06T09:04:19.422Z,29.29
2019-04-06T09:06:48.729Z,29.61
2019-04-06T09:09:18.009Z,34.54
2019-04-06T09:11:47.346Z,34.86
2019-04-06T09:14:16.739Z,33.17
2019-04-06T09:16:46.092Z,31.30
2019-04-06T09:19:15.413Z,31.83
2019-04-06T09:21:44.705Z,34.26
2019-04-06T09:24:14.244Z,31.23
2019-04-06T09:26:48.006Z,32.74
2019-04-06T09:29:23.297Z,32.45
2019-04-06T09:31:48.524Z,30.84
2019-04-06T09:34:17.894Z,33.16
2019-04-06T09:36:48.413Z,31.41
2019-04-06T09:39:17.696Z,29.82
2019-04-06T09:41:48.494Z,29.71
2019-04-06T09:44:39.821Z,29.45
2019-04-06T09:47:21.433Z,33.24
2019-04-06T09:50:08.690Z,30.60
2019-04-06T09:53:06.369Z,33.24
2019-04-06T09:55:45.760Z,33.24
2019-04-06T09:58:37.161Z,36.20
2019-04-06T10:01:37.308Z,36.97
2019-04-06T10:04:09.092Z,38.67
2019-04-06T10:07:17.412Z,36.01
2019-04-06T10:10:17.600Z,33.69
2019-04-06T10:13:20.940Z,35.18
2019-04-06T10:16:05.984Z,34.98
2019-04-06T10:19:06.577Z,37.87
2019-04-06T10:21:47.434Z,38.00
2019-04-06T10:24:54.227Z,40.17
2019-04-06T10:27:40.553Z,38.97
2019-04-06T10:30:44.397Z,38.87
2019-04-06T10:33:32.651Z,39.80
2019-04-06T10:36:14.276Z,41.77
2019-04-06T10:39:01.038Z,41.68
2019-04-06T10:41:40.796Z,41.13
2019-04-06T10:44:19.450Z,42.26
2019-04-06T10:47:18.159Z,41.99
2019-04-06T10:49:53.090Z,42.03
2019-04-06T10:52:53.194Z,43.50
2019-04-06T10:55:44.157Z,42.53
2019-04-06T10:58:40.294Z,42.01
2019-04-06T11:01:31.853Z,40.51
2019-04-06T11:04:06.987Z,41.46
2019-04-06T11:06:45.631Z,40.52
2019-04-06T11:09:26.699Z,39.29
2019-04-06T11:12:11.197Z,39.13
2019-04-06T11:14:52.518Z,38.64
2019-04-06T11:17:52.930Z,38.25
2019-04-06T11:20:42.964Z,38.20
2019-04-06T11:23:29.887Z,36.16
2019-04-06T11:26:33.450Z,35.53
2019-04-06T11:29:31.079Z,35.46
2019-04-06T11:32:14.489Z,35.59
2019-04-06T11:35:20.985Z,36.14
2019-04-06T11:38:21.326Z,37.01
2019-04-06T11:41:08.843Z,37.63
2019-04-06T11:43:52.648Z,37.31
2019-04-06T11:46:46.965Z,36.52
2019-04-06T11:49:37.264Z,36.76
2019-04-06T11:52:30.785Z,37.89
2019-04-06T11:55:20.584Z,37.96
2019-04-06T11:58:20.811Z,38.72
2019-04-06T12:01:15.828Z,39.81
2019-04-06T12:04:04.860Z,40.72
2019-04-06T12:07:00.962Z,41.54
2019-04-06T12:09:47.353Z,40.58
2019-04-06T12:12:42.877Z,39.94
2019-04-06T12:15:21.864Z,39.44
2019-04-06T12:18:06.849Z,40.29
2019-04-06T12:20:55.508Z,38.66
2019-04-06T12:23:51.829Z,37.98
2019-04-06T12:26:40.006Z,38.96
2019-04-06T12:29:27.199Z,37.16
2019-04-06T12:32:15.485Z,35.49
2019-04-06T12:35:12.350Z,35.60
2019-04-06T12:38:03.124Z,37.44
2019-04-06T12:40:51.181Z,37.44
2019-04-06T12:43:42.753Z,37.34
2019-04-06T12:46:33.486Z,37.90
2019-04-06T12:49:15.463Z,38.34
2019-04-06T12:52:06.659Z,37.94
2019-04-06T12:54:49.997Z,38.06
2019-04-06T12:57:38.230Z,38.09
2019-04-06T13:00:27.088Z,38.34
2019-04-06T13:03:24.651Z,38.21
2019-04-06T13:06:03.482Z,38.28
2019-04-06T13:08:54.742Z,38.60
2019-04-06T13:11:42.156Z,39.51
2019-04-06T13:14:30.736Z,38.93
2019-04-06T13:17:17.937Z,39.01
2019-04-06T13:20:15.146Z,38.66
2019-04-06T13:22:57.362Z,38.09
2019-04-06T13:25:40.123Z,37.74
2019-04-06T13:28:40.771Z,37.38
2019-04-06T13:31:41.098Z,36.96
2019-04-06T13:34:18.957Z,36.65
2019-04-06T13:37:01.580Z,35.93
2019-04-06T13:39:52.859Z,34.71
2019-04-06T13:42:46.233Z,34.71
2019-04-06T13:45:29.305Z,35.17
2019-04-06T13:48:23.378Z,35.13
2019-04-06T13:51:24.207Z,34.01
2019-04-06T13:54:01.536Z,34.65
2019-04-06T13:56:58.909Z,34.13
2019-04-06T13:59:39.078Z,34.81
2019-04-06T14:02:33.691Z,35.75
2019-04-06T14:05:24.270Z,35.98
2019-04-06T14:08:12.504Z,35.99
2019-04-06T14:10:59.694Z,35.99
2019-04-06T14:13:37.765Z,36.26
2019-04-06T14:16:21.885Z,36.28
2019-04-06T14:19:10.495Z,36.77
2019-04-06T14:22:14.098Z,36.97
2019-04-06T14:25:03.740Z,36.54
2019-04-06T14:27:40.018Z,36.39
2019-04-06T14:30:15.656Z,36.39
2019-04-06T14:33:04.133Z,36.21
2019-04-06T14:36:09.461Z,35.48
2019-04-06T14:38:50.985Z,36.19
2019-04-06T14:41:38.088Z,37.18
2019-04-06T14:44:19.658Z,37.18
2019-04-06T14:47:06.259Z,37.39
2019-04-06T14:50:06.484Z,37.22
2019-04-06T14:52:52.843Z,37.11
2019-04-06T14:55:43.516Z,36.83
2019-04-06T14:58:36.188Z,36.56
2019-04-06T15:01:12.254Z,36.20
2019-04-06T15:04:06.625Z,35.95
2019-04-06T15:07:13.588Z,36.38
2019-04-06T15:10:00.283Z,36.43
2019-04-06T15:13:03.689Z,35.88
2019-04-06T15:15:53.305Z,35.75
2019-04-06T15:18:41.936Z,35.15
2019-04-06T15:21:21.059Z,35.13
2019-04-06T15:24:12.637Z,35.14
2019-04-06T15:27:13.439Z,35.20
2019-04-06T15:29:48.865Z,35.78
2019-04-06T15:32:33.618Z,35.55
2019-04-06T15:35:21.854Z,35.81
2019-04-06T15:38:13.270Z,36.65
2019-04-06T15:40:57.828Z,36.75
2019-04-06T15:43:45.926Z,37.35
2019-04-06T15:46:43.729Z,37.54
2019-04-06T15:49:35.167Z,37.31
2019-04-06T15:52:35.660Z,37.81
2019-04-06T15:55:25.934Z,37.64
2019-04-06T15:58:07.709Z,37.89
2019-04-06T16:01:02.827Z,37.55
2019-04-06T16:03:54.406Z,37.74
2019-04-06T16:06:34.735Z,37.60
2019-04-06T16:09:24.025Z,38.02
2019-04-06T16:12:06.747Z,38.21
2019-04-06T16:14:46.175Z,38.40
2019-04-06T16:17:27.831Z,38.57
2019-04-06T16:20:16.191Z,38.52
2019-04-06T16:23:24.254Z,38.28
2019-04-06T16:26:24.783Z,38.17
2019-04-06T16:29:14.006Z,38.08
2019-04-06T16:32:15.050Z,38.37
2019-04-06T16:35:09.491Z,38.56
2019-04-06T16:38:02.900Z,38.47
2019-04-06T16:40:51.755Z,38.62
2019-04-06T16:43:45.990Z,38.59
2019-04-06T16:46:39.049Z,38.86
2019-04-06T16:49:27.087Z,38.82
2019-04-06T16:52:27.179Z,38.91
2019-04-06T16:55:07.810Z,38.53
2019-04-06T16:57:47.267Z,39.08
2019-04-06T17:00:36.890Z,39.20
2019-04-06T17:03:15.326Z,39.41
2019-04-06T17:06:18.800Z,39.50
2019-04-06T17:09:09.873Z,39.77
2019-04-06T17:11:59.274Z,40.11
2019-04-06T17:14:46.253Z,40.22
2019-04-06T17:17:41.051Z,40.34
2019-04-06T17:20:28.575Z,40.19
2019-04-06T17:23:27.293Z,40.61
2019-04-06T17:26:04.779Z,40.46
2019-04-06T17:28:51.912Z,40.74
2019-04-06T17:31:44.171Z,40.91
2019-04-06T17:34:34.063Z,40.82
2019-04-06T17:37:16.063Z,41.23
2019-04-06T17:40:07.547Z,41.18
2019-04-06T17:42:55.910Z,41.71
2019-04-06T17:45:43.823Z,41.74
2019-04-06T17:48:31.669Z,42.02
2019-04-06T17:51:14.575Z,42.05
2019-04-06T17:54:11.861Z,42.22
2019-04-06T17:56:52.540Z,42.22
2019-04-06T17:59:51.485Z,42.29
2019-04-06T18:02:47.892Z,42.64
2019-04-06T18:05:29.365Z,42.47
2019-04-06T18:08:21.247Z,42.82
2019-04-06T18:11:08.767Z,43.04
2019-04-06T18:13:50.969Z,42.82
2019-04-06T18:16:23.339Z,43.08
2019-04-06T18:18:52.627Z,43.42
2019-04-06T18:21:22.261Z,43.42
2019-04-06T18:23:51.711Z,43.71
2019-04-06T18:26:20.995Z,43.68
2019-04-06T18:28:50.840Z,43.60
2019-04-06T18:31:54.287Z,43.79
2019-04-06T18:34:23.891Z,43.84
2019-04-06T18:36:59.536Z,44.25
2019-04-06T18:39:31.269Z,44.27
2019-04-06T18:42:00.517Z,44.68
2019-04-06T18:44:29.824Z,45.21
2019-04-06T18:47:00.825Z,44.91
2019-04-06T18:49:30.079Z,45.00
2019-04-06T18:51:59.408Z,45.33
2019-04-06T18:54:29.046Z,45.22
2019-04-06T18:56:58.370Z,45.32
2019-04-06T18:59:27.674Z,45.47
2019-04-06T19:01:57.332Z,45.71
2019-04-06T19:04:27.381Z,45.94
2019-04-06T19:06:56.818Z,46.12
2019-04-06T19:09:26.105Z,46.31
2019-04-06T19:11:57.031Z,46.13
2019-04-06T19:14:26.932Z,46.18
2019-04-06T19:16:56.275Z,46.18
2019-04-06T19:19:26.123Z,46.73
2019-04-06T19:21:55.632Z,46.78
2019-04-06T19:24:25.018Z,46.67
2019-04-06T19:26:54.315Z,46.63
2019-04-06T19:29:23.962Z,46.79
2019-04-06T19:31:53.308Z,46.97
2019-04-06T19:34:22.612Z,47.40
2019-04-06T19:36:52.173Z,47.46
2019-04-06T19:39:21.603Z,47.41
2019-04-06T19:41:51.986Z,47.63
2019-04-06T19:44:21.660Z,47.61
2019-04-06T19:46:51.307Z,47.83
2019-04-06T19:49:20.604Z,48.30
2019-04-06T19:51:49.899Z,48.31
2019-04-06T19:54:19.236Z,48.11
2019-04-06T19:56:48.640Z,48.48
2019-04-06T19:59:17.902Z,48.63
2019-04-06T20:01:47.252Z,48.80
2019-04-06T20:04:16.833Z,48.92
2019-04-06T20:06:46.878Z,48.72
2019-04-06T20:09:16.212Z,49.08
2019-04-06T20:11:45.602Z,49.25
2019-04-06T20:14:14.862Z,49.37
2019-04-06T20:16:45.142Z,49.26
2019-04-06T20:19:14.417Z,49.63
2019-04-06T20:21:43.726Z,49.68
2019-04-06T20:24:12.987Z,49.82
2019-04-06T20:26:42.780Z,50.07
2019-04-06T20:29:12.654Z,50.13
2019-04-06T20:31:42.089Z,49.96
2019-04-06T20:34:11.876Z,50.27
2019-04-06T20:36:41.156Z,50.80
2019-04-06T20:39:11.289Z,50.56
2019-04-06T20:41:40.628Z,50.82
2019-04-06T20:44:09.917Z,50.94
2019-04-06T20:46:39.785Z,51.27
2019-04-06T20:49:09.290Z,51.33
2019-04-06T20:51:38.988Z,51.35
2019-04-06T20:54:09.055Z,51.49
2019-04-06T20:56:38.456Z,51.81
2019-04-06T20:59:09.069Z,52.13
2019-04-06T21:01:39.836Z,52.11
2019-04-06T21:04:09.239Z,52.11
2019-04-06T21:06:39.124Z,52.19
2019-04-06T21:09:14.035Z,52.16
2019-04-06T21:11:43.452Z,52.24
2019-04-06T21:14:14.381Z,52.03
2019-04-06T21:16:43.863Z,52.07
2019-04-06T21:19:13.200Z,51.85
2019-04-06T21:21:42.742Z,51.41
2019-04-06T21:24:12.497Z,51.62
2019-04-06T21:26:43.315Z,50.99
2019-04-06T21:29:12.650Z,51.27
2019-04-06T21:32:01.627Z,51.49
2019-04-06T21:34:32.848Z,51.99
2019-04-06T21:37:02.137Z,51.72
2019-04-06T21:39:31.447Z,51.79
2019-04-06T21:42:00.789Z,51.84
2019-04-06T21:44:30.051Z,51.88
2019-04-06T21:46:59.383Z,51.86
2019-04-06T21:49:29.090Z,52.26
2019-04-06T21:51:58.701Z,52.46
2019-04-06T21:54:28.643Z,52.64
2019-04-06T21:56:58.404Z,52.86
2019-04-06T21:59:28.065Z,53.12
2019-04-06T22:01:59.469Z,53.00
2019-04-06T22:04:29.336Z,53.16
2019-04-06T22:06:58.787Z,53.49
2019-04-06T22:09:28.791Z,53.59
2019-04-06T22:11:58.532Z,53.48
2019-04-06T22:14:28.404Z,53.64
2019-04-06T22:16:58.390Z,53.66
2019-04-06T22:19:27.941Z,53.88
2019-04-06T22:21:57.304Z,54.02
2019-04-06T22:24:27.223Z,54.20
2019-04-06T22:26:57.407Z,54.23
2019-04-06T22:29:27.500Z,54.68
2019-04-06T22:31:58.473Z,54.71
2019-04-06T22:34:37.155Z,54.89
2019-04-06T22:36:59.758Z,54.88
2019-04-06T22:39:29.859Z,55.08
2019-04-06T22:41:59.355Z,55.23
2019-04-06T22:44:29.100Z,55.27
2019-04-06T22:46:58.899Z,55.36
2019-04-06T22:49:28.428Z,55.58
2019-04-06T22:51:58.453Z,55.58
2019-04-06T22:54:28.727Z,55.63
2019-04-06T22:56:58.827Z,55.48
2019-04-06T22:59:30.009Z,55.59
2019-04-06T23:01:59.800Z,55.64
2019-04-06T23:04:47.236Z,55.88
2019-04-06T23:07:13.369Z,55.90
2019-04-06T23:09:44.361Z,55.85
2019-04-06T23:12:18.037Z,55.67
2019-04-06T23:14:49.161Z,56.04
2019-04-06T23:17:18.979Z,56.25
2019-04-06T23:19:48.830Z,56.44
2019-04-06T23:22:19.617Z,56.36
2019-04-06T23:24:48.863Z,56.29
2019-04-06T23:27:18.287Z,55.75
2019-04-06T23:29:47.600Z,56.19
2019-04-06T23:32:16.988Z,56.50
2019-04-06T23:34:59.451Z,56.78
2019-04-06T23:37:20.542Z,56.92
2019-04-06T23:39:50.436Z,56.69
2019-04-06T23:42:20.521Z,56.65
2019-04-06T23:44:49.950Z,56.91
2019-04-06T23:47:19.244Z,56.94
2019-04-06T23:49:48.546Z,57.26
2019-04-06T23:52:18.311Z,57.63
2019-04-06T23:54:49.201Z,57.53
2019-04-06T23:57:18.722Z,57.73
2019-04-06T23:59:47.933Z,57.95
